Time;durP1;ratioP1;P1;durP2;ratioP2;P2;SDS_P1;SDS_P2;PMS_P1;PMS_P2;Temp;Humidity;BMP_temperature;BMP_pressure;BME280_temperature;BME280_humidity;BME280_pressure;Samples;Min_cycle;Max_cycle;Signal;HPM_P1;HPM_P2
2023/12/29 00:02:00;;;;;;;2.05;1.88;;;18.30;59.90;;;;;;5111840;27;20232;-68
2023/12/29 00:04:26;;;;;;;1.63;1.52;;;18.40;60.00;;;;;;5093537;28;20295;-68
2023/12/29 00:06:52;;;;;;;2.05;1.48;;;18.30;59.90;;;;;;5107865;28;20283;-68
2023/12/29 00:09:20;;;;;;;1.63;1.52;;;18.40;60.00;;;;;;5100889;28;20208;-69
2023/12/29 00:11:54;;;;;;;1.67;1.58;;;18.40;60.00;;;;;;5095457;28;20188;-69
2023/12/29 00:14:20;;;;;;;1.77;1.60;;;18.30;59.90;;;;;;5093169;28;20691;-68
2023/12/29 00:16:46;;;;;;;1.92;1.73;;;18.30;59.90;;;;;;5094116;28;20181;-68
2023/12/29 00:19:12;;;;;;;1.30;1.20;;;18.30;59.90;;;;;;5076396;28;20199;-68
2023/12/29 00:21:38;;;;;;;2.03;1.55;;;18.30;59.90;;;;;;5109212;28;20181;-68
2023/12/29 00:24:05;;;;;;;1.70;1.60;;;18.30;60.00;;;;;;5089618;28;20236;-68
2023/12/29 00:26:31;;;;;;;1.30;1.20;;;18.40;60.00;;;;;;5093087;28;20181;-68
2023/12/29 00:28:57;;;;;;;2.25;1.63;;;18.30;59.90;;;;;;5108162;28;20199;-68
2023/12/29 00:31:23;;;;;;;1.73;1.60;;;18.40;60.00;;;;;;5091119;28;20592;-68
2023/12/29 00:33:52;;;;;;;1.40;1.30;;;18.30;59.90;;;;;;5108856;28;20203;-68
2023/12/29 00:36:20;;;;;;;1.50;1.40;;;18.30;59.90;;;;;;5091927;28;20185;-68
2023/12/29 00:38:46;;;;;;;1.63;1.40;;;18.30;59.90;;;;;;5106830;28;20187;-68
2023/12/29 00:41:12;;;;;;;1.42;1.33;;;18.40;60.00;;;;;;5093739;28;20248;-68
2023/12/29 00:43:38;;;;;;;1.38;1.25;;;18.30;59.90;;;;;;5091689;28;20213;-68
2023/12/29 00:46:05;;;;;;;1.50;1.40;;;18.40;60.00;;;;;;5100193;28;20197;-66
2023/12/29 00:48:31;;;;;;;1.92;1.75;;;18.40;60.00;;;;;;5075557;28;20176;-68
2023/12/29 00:50:57;;;;;;;1.67;1.58;;;18.40;60.00;;;;;;5092397;28;20362;-68
2023/12/29 00:53:23;;;;;;;1.75;1.65;;;18.30;60.00;;;;;;5074433;28;20213;-68
2023/12/29 00:55:49;;;;;;;1.50;1.40;;;18.40;60.00;;;;;;5108566;28;20223;-68
2023/12/29 00:58:15;;;;;;;1.60;1.50;;;18.40;60.10;;;;;;5076920;28;20184;-68
2023/12/29 01:00:40;;;;;;;1.73;1.40;;;18.30;60.00;;;;;;5075107;28;20184;-68
2023/12/29 01:03:06;;;;;;;1.27;1.17;;;18.30;59.90;;;;;;5107840;28;20217;-68
2023/12/29 01:05:32;;;;;;;1.70;1.60;;;18.30;59.90;;;;;;5091439;28;20180;-68
2023/12/29 01:07:58;;;;;;;1.50;1.40;;;18.40;60.00;;;;;;5104250;28;20662;-68
2023/12/29 01:10:23;;;;;;;1.88;1.50;;;18.40;60.00;;;;;;5108496;28;20210;-68
2023/12/29 01:12:49;;;;;;;1.55;1.45;;;18.30;60.00;;;;;;5035624;28;1121380;-68
2023/12/29 01:15:15;;;;;;;1.50;1.40;;;18.30;59.90;;;;;;5091601;28;20257;-68
2023/12/29 01:17:41;;;;;;;1.70;1.60;;;18.40;60.10;;;;;;5091538;28;20185;-68
2023/12/29 01:20:07;;;;;;;1.70;1.60;;;18.40;60.00;;;;;;5110284;27;20197;-68
2023/12/29 01:22:33;;;;;;;1.70;1.60;;;18.30;60.00;;;;;;5093178;28;20221;-68
2023/12/29 01:25:00;;;;;;;1.33;1.30;;;18.30;59.90;;;;;;5095497;28;20187;-68
2023/12/29 01:27:27;;;;;;;1.70;1.60;;;18.30;60.00;;;;;;5091952;28;20186;-68
2023/12/29 01:29:53;;;;;;;1.80;1.45;;;18.40;60.00;;;;;;5092405;28;20176;-68
2023/12/29 01:32:21;;;;;;;1.73;1.63;;;18.40;60.00;;;;;;5092491;28;20228;-68
2023/12/29 01:34:48;;;;;;;1.60;1.50;;;18.40;60.10;;;;;;5091914;28;20177;-68
2023/12/29 01:37:13;;;;;;;1.70;1.60;;;18.30;60.00;;;;;;5093235;28;20242;-68
2023/12/29 01:39:40;;;;;;;1.50;1.40;;;18.40;60.10;;;;;;5071908;28;20264;-68
2023/12/29 01:42:06;;;;;;;1.60;1.50;;;18.40;60.10;;;;;;5087446;28;20208;-68
2023/12/29 01:44:32;;;;;;;1.70;1.60;;;18.40;60.10;;;;;;5090483;28;20236;-68
2023/12/29 01:47:05;;;;;;;1.50;1.40;;;18.40;60.10;;;;;;5108638;28;20185;-68
2023/12/29 01:49:33;;;;;;;1.80;1.70;;;18.40;60.00;;;;;;5091748;28;20181;-68
2023/12/29 01:52:01;;;;;;;1.40;1.30;;;18.40;60.10;;;;;;5074883;28;20646;-68
2023/12/29 01:54:37;;;;;;;1.50;1.40;;;18.30;60.00;;;;;;5110323;28;20195;-68
2023/12/29 01:57:04;;;;;;;1.77;1.67;;;18.40;60.10;;;;;;5111970;28;20552;-68
2023/12/29 01:59:31;;;;;;;2.15;1.60;;;18.40;60.10;;;;;;5085921;28;20655;-68
2023/12/29 02:01:57;;;;;;;1.50;1.40;;;18.30;60.00;;;;;;5096896;28;20295;-68
2023/12/29 02:04:27;;;;;;;1.70;1.60;;;18.30;59.90;;;;;;5084051;28;20200;-68
2023/12/29 02:06:55;;;;;;;1.55;1.45;;;18.40;60.00;;;;;;5105507;28;20618;-68
2023/12/29 02:09:21;;;;;;;1.65;1.40;;;18.30;60.00;;;;;;5100303;28;20193;-68
2023/12/29 02:11:48;;;;;;;1.60;1.45;;;18.40;60.10;;;;;;5098111;28;20215;-69
2023/12/29 02:14:20;;;;;;;1.40;1.30;;;18.40;60.10;;;;;;5082573;28;20253;-68
2023/12/29 02:17:13;;;;;;;1.60;1.50;;;18.30;60.00;;;;;;5095941;28;20689;-68
2023/12/29 02:19:46;;;;;;;1.42;1.33;;;18.30;60.00;;;;;;5069501;28;20184;-68
2023/12/29 02:22:12;;;;;;;1.30;1.20;;;18.30;60.00;;;;;;5093367;28;20207;-68
2023/12/29 02:24:39;;;;;;;2.08;1.55;;;18.40;60.10;;;;;;5075091;28;20279;-68
2023/12/29 02:27:36;;;;;;;1.35;1.25;;;18.40;60.10;;;;;;5091003;28;20185;-68
2023/12/29 02:30:26;;;;;;;1.67;1.40;;;18.40;60.10;;;;;;5098633;28;20187;-68
2023/12/29 02:32:58;;;;;;;1.80;1.70;;;18.40;60.10;;;;;;5075304;28;20211;-68
2023/12/29 02:35:28;;;;;;;1.50;1.40;;;18.30;60.00;;;;;;5090050;28;20658;-68
2023/12/29 02:37:58;;;;;;;1.40;1.30;;;18.40;60.10;;;;;;5079602;28;20267;-68
2023/12/29 02:40:25;;;;;;;1.55;1.45;;;18.30;60.00;;;;;;5092838;28;20238;-67
2023/12/29 02:42:51;;;;;;;1.50;1.40;;;18.40;60.10;;;;;;5126521;27;20250;-68
2023/12/29 02:45:17;;;;;;;1.45;1.35;;;18.40;60.90;;;;;;5100587;28;20216;-69
2023/12/29 02:47:44;;;;;;;1.60;1.50;;;18.30;60.00;;;;;;5099301;28;20183;-68
2023/12/29 02:50:11;;;;;;;1.70;1.60;;;18.30;60.10;;;;;;5075404;28;20173;-69
2023/12/29 02:52:37;;;;;;;1.45;1.35;;;18.40;60.10;;;;;;5097083;28;20216;-68
2023/12/29 02:55:03;;;;;;;1.30;1.20;;;18.40;60.10;;;;;;5096976;28;20280;-68
2023/12/29 02:57:29;;;;;;;1.42;1.33;;;18.40;60.10;;;;;;5082330;28;20226;-68
2023/12/29 02:59:56;;;;;;;2.22;1.50;;;18.30;60.00;;;;;;5098082;28;20230;-68
2023/12/29 03:02:23;;;;;;;1.40;1.30;;;18.30;60.00;;;;;;5088225;28;20211;-69
2023/12/29 03:04:49;;;;;;;1.67;1.30;;;18.30;60.00;;;;;;5102221;28;20569;-68
2023/12/29 03:07:16;;;;;;;1.50;1.40;;;18.30;60.00;;;;;;5096566;28;20288;-68
2023/12/29 03:09:42;;;;;;;1.25;1.15;;;18.30;60.00;;;;;;5073618;28;20181;-68
2023/12/29 03:12:08;;;;;;;1.30;1.30;;;18.40;60.20;;;;;;5073213;28;20203;-68
2023/12/29 03:14:33;;;;;;;1.20;1.20;;;18.40;60.10;;;;;;5098885;28;20191;-68
2023/12/29 03:17:00;;;;;;;1.50;1.40;;;18.40;60.10;;;;;;5086762;28;20203;-68
2023/12/29 03:19:27;;;;;;;1.30;1.30;;;18.40;60.10;;;;;;5083224;28;20267;-68
2023/12/29 03:21:54;;;;;;;1.38;1.33;;;18.30;60.00;;;;;;5080162;28;20184;-68
2023/12/29 03:24:20;;;;;;;1.48;1.30;;;18.40;60.10;;;;;;5097377;28;20207;-69
2023/12/29 03:26:48;;;;;;;1.40;1.30;;;18.30;60.10;;;;;;5091716;28;20181;-68
2023/12/29 03:29:14;;;;;;;1.48;1.38;;;18.30;60.00;;;;;;5072832;28;20238;-68
2023/12/29 03:31:39;;;;;;;1.60;1.38;;;18.30;60.00;;;;;;5098749;28;20242;-68
2023/12/29 03:34:05;;;;;;;1.40;1.30;;;18.40;60.10;;;;;;5090761;28;20187;-68
2023/12/29 03:36:31;;;;;;;1.70;1.60;;;18.30;60.10;;;;;;5097557;28;20776;-68
2023/12/29 03:38:57;;;;;;;1.45;1.35;;;18.40;60.20;;;;;;5068334;28;20255;-68
2023/12/29 03:41:23;;;;;;;1.98;1.50;;;18.40;60.20;;;;;;5095182;28;20267;-68
2023/12/29 03:43:48;;;;;;;1.58;1.48;;;18.40;60.20;;;;;;5086662;28;20274;-68
2023/12/29 03:46:20;;;;;;;1.52;1.42;;;18.40;60.20;;;;;;5073586;28;20188;-68
2023/12/29 03:48:47;;;;;;;1.40;1.30;;;18.40;60.10;;;;;;5096974;28;20230;-68
2023/12/29 03:51:13;;;;;;;1.40;1.30;;;18.40;60.10;;;;;;5081586;28;20187;-68
2023/12/29 03:53:40;;;;;;;1.50;1.40;;;18.40;60.20;;;;;;5096462;28;20216;-68
2023/12/29 03:56:17;;;;;;;1.70;1.40;;;18.40;60.20;;;;;;5079765;28;20193;-68
2023/12/29 03:58:44;;;;;;;1.30;1.20;;;18.30;60.00;;;;;;5088966;28;20189;-67
2023/12/29 04:01:15;;;;;;;1.27;1.17;;;18.40;60.20;;;;;;5096022;28;20220;-68
2023/12/29 04:03:42;;;;;;;1.05;1.05;;;18.30;60.10;;;;;;5073651;28;20209;-68
2023/12/29 04:06:09;;;;;;;1.40;1.30;;;18.30;60.10;;;;;;5083961;28;20231;-68
2023/12/29 04:08:35;;;;;;;1.33;1.23;;;18.40;60.20;;;;;;5083257;28;20199;-69
2023/12/29 04:11:01;;;;;;;1.17;1.13;;;18.30;60.00;;;;;;5076277;28;20215;-68
2023/12/29 04:13:27;;;;;;;1.50;1.27;;;18.30;60.10;;;;;;5093664;28;20267;-67
2023/12/29 04:15:53;;;;;;;1.25;1.15;;;18.40;60.20;;;;;;5103613;28;20229;-68
2023/12/29 04:18:24;;;;;;;1.30;1.20;;;18.40;60.20;;;;;;5086476;28;20196;-69
2023/12/29 04:20:50;;;;;;;1.33;1.23;;;18.40;60.20;;;;;;5076064;28;20192;-68
2023/12/29 04:23:16;;;;;;;1.35;1.25;;;18.30;60.10;;;;;;5076169;28;20221;-68
2023/12/29 04:25:42;;;;;;;1.15;1.15;;;18.40;60.20;;;;;;5076539;28;20191;-68
2023/12/29 04:28:08;;;;;;;1.58;1.33;;;18.30;60.10;;;;;;5105669;28;20537;-68
2023/12/29 04:30:35;;;;;;;1.10;1.00;;;18.40;60.20;;;;;;5116191;27;20277;-67
2023/12/29 04:33:00;;;;;;;1.20;1.20;;;18.40;60.20;;;;;;5091101;28;20262;-68
2023/12/29 04:35:26;;;;;;;1.27;1.17;;;18.40;60.20;;;;;;5097321;28;20244;-68
2023/12/29 04:37:52;;;;;;;1.00;1.00;;;18.40;60.20;;;;;;5084523;28;20191;-68
2023/12/29 04:40:19;;;;;;;1.23;1.23;;;18.40;60.20;;;;;;5075995;28;20279;-68
2023/12/29 04:42:45;;;;;;;1.25;1.25;;;18.40;60.30;;;;;;5087092;28;20214;-68
2023/12/29 04:45:11;;;;;;;1.00;1.00;;;18.30;60.10;;;;;;5073809;28;20189;-68
2023/12/29 04:47:37;;;;;;;1.33;1.23;;;18.40;60.20;;;;;;5101360;28;20193;-68
2023/12/29 04:50:05;;;;;;;1.30;1.20;;;18.30;60.10;;;;;;5076036;28;20183;-68
2023/12/29 04:52:32;;;;;;;1.38;1.27;;;18.40;60.20;;;;;;5096054;28;20266;-68
2023/12/29 04:54:57;;;;;;;0.98;0.98;;;18.30;60.10;;;;;;5085737;28;20181;-68
2023/12/29 04:57:23;;;;;;;1.08;1.08;;;18.40;60.30;;;;;;5096988;28;20195;-68
2023/12/29 04:59:49;;;;;;;1.35;1.23;;;18.40;60.20;;;;;;5099688;28;20189;-68
2023/12/29 05:02:15;;;;;;;0.88;0.88;;;18.40;60.20;;;;;;5093714;28;20205;-68
2023/12/29 05:04:41;;;;;;;1.17;1.17;;;18.40;60.30;;;;;;5080907;28;20217;-68
2023/12/29 05:07:09;;;;;;;1.20;1.10;;;18.30;60.20;;;;;;5107917;28;20188;-68
2023/12/29 05:09:35;;;;;;;1.08;1.00;;;18.40;60.30;;;;;;5084498;28;20203;-68
2023/12/29 05:12:01;;;;;;;1.30;1.20;;;18.30;60.20;;;;;;5088506;28;20249;-68
2023/12/29 05:14:26;;;;;;;1.02;1.02;;;18.40;60.20;;;;;;5075356;28;20189;-68
2023/12/29 05:16:52;;;;;;;1.20;1.10;;;18.40;61.00;;;;;;5093444;28;20193;-68
2023/12/29 05:19:18;;;;;;;1.20;1.10;;;18.40;60.30;;;;;;5077559;28;20185;-68
2023/12/29 05:21:43;;;;;;;1.00;1.00;;;18.40;60.20;;;;;;5091943;28;20190;-68
2023/12/29 05:24:10;;;;;;;1.20;1.10;;;18.30;60.20;;;;;;5124005;27;20233;-68
2023/12/29 05:26:36;;;;;;;1.15;1.13;;;18.30;60.20;;;;;;5089799;28;20241;-69
2023/12/29 05:29:03;;;;;;;1.30;1.20;;;18.40;60.30;;;;;;5106798;28;20188;-68
2023/12/29 05:31:28;;;;;;;1.38;1.27;;;18.30;61.00;;;;;;5104273;28;20191;-68
2023/12/29 05:33:55;;;;;;;1.20;1.10;;;18.40;60.40;;;;;;5103380;28;20200;-68
2023/12/29 05:36:21;;;;;;;1.35;1.25;;;18.30;60.20;;;;;;5080513;28;20201;-68
2023/12/29 05:38:47;;;;;;;1.17;1.05;;;18.40;60.30;;;;;;5082084;28;20185;-68
2023/12/29 05:41:14;;;;;;;1.00;1.00;;;18.30;60.20;;;;;;5083492;28;20184;-68
2023/12/29 05:43:40;;;;;;;1.00;1.00;;;18.40;60.30;;;;;;5080807;28;20227;-68
2023/12/29 05:46:12;;;;;;;1.20;1.10;;;18.40;60.30;;;;;;5096904;28;20173;-68
2023/12/29 05:48:39;;;;;;;1.23;1.13;;;18.30;60.20;;;;;;5093914;28;20188;-69
2023/12/29 05:51:13;;;;;;;1.40;1.30;;;18.40;60.30;;;;;;5096769;28;20181;-68
2023/12/29 05:53:42;;;;;;;2.40;1.25;;;18.30;60.20;;;;;;5103474;28;20217;-68
2023/12/29 05:56:12;;;;;;;0.98;0.98;;;18.40;60.30;;;;;;5096961;28;20191;-68
2023/12/29 05:58:38;;;;;;;0.98;0.98;;;18.30;60.20;;;;;;5074541;28;20191;-67
2023/12/29 06:01:03;;;;;;;1.52;1.35;;;18.30;60.20;;;;;;5083677;28;20176;-68
2023/12/29 06:03:29;;;;;;;1.50;1.40;;;18.30;60.20;;;;;;5097605;28;20238;-68
2023/12/29 06:05:55;;;;;;;1.20;1.10;;;18.40;60.30;;;;;;5081278;28;20188;-68
2023/12/29 06:08:21;;;;;;;1.13;1.10;;;18.40;60.30;;;;;;5093673;28;20189;-68
2023/12/29 06:10:46;;;;;;;1.15;1.15;;;18.40;60.30;;;;;;5084220;28;20280;-68
2023/12/29 06:13:12;;;;;;;1.35;1.25;;;18.30;60.20;;;;;;5074286;28;20212;-68
2023/12/29 06:15:38;;;;;;;1.25;1.15;;;18.30;60.20;;;;;;5094863;28;20193;-68
2023/12/29 06:18:04;;;;;;;1.20;1.10;;;18.40;60.20;;;;;;5091224;28;20211;-68
2023/12/29 06:20:30;;;;;;;1.30;1.20;;;18.30;60.20;;;;;;5074104;28;20299;-68
2023/12/29 06:22:56;;;;;;;1.00;0.98;;;18.40;60.30;;;;;;5095829;28;20743;-68
2023/12/29 06:25:22;;;;;;;1.10;1.10;;;18.40;60.30;;;;;;5078991;28;20179;-68
2023/12/29 06:27:48;;;;;;;1.10;1.00;;;18.30;60.20;;;;;;5082405;28;20573;-68
2023/12/29 06:30:14;;;;;;;1.10;1.10;;;18.40;60.30;;;;;;5092042;28;20279;-68
2023/12/29 06:32:41;;;;;;;1.00;1.00;;;18.30;60.20;;;;;;5096781;28;20208;-68
2023/12/29 06:35:09;;;;;;;1.20;1.20;;;18.40;60.30;;;;;;5090839;28;20181;-68
2023/12/29 06:37:38;;;;;;;1.05;1.05;;;18.40;60.30;;;;;;5095592;28;20188;-68
2023/12/29 06:40:06;;;;;;;1.20;1.10;;;18.40;60.30;;;;;;5094928;28;20188;-67
2023/12/29 06:42:32;;;;;;;1.20;1.10;;;18.30;60.20;;;;;;5090535;28;20667;-68
2023/12/29 06:44:58;;;;;;;1.35;1.25;;;18.40;60.30;;;;;;5083228;28;20184;-68
2023/12/29 06:47:23;;;;;;;1.20;1.20;;;18.40;60.30;;;;;;5074010;28;20177;-68
2023/12/29 06:49:50;;;;;;;1.30;1.13;;;18.30;60.20;;;;;;5095265;28;20196;-68
2023/12/29 06:52:16;;;;;;;1.48;1.38;;;18.40;60.30;;;;;;5090516;28;20257;-69
2023/12/29 06:54:42;;;;;;;1.10;1.10;;;18.40;60.30;;;;;;5081120;28;20185;-68
2023/12/29 06:57:08;;;;;;;1.40;1.30;;;18.30;60.20;;;;;;5073551;28;20561;-68
2023/12/29 06:59:34;;;;;;;1.85;1.15;;;18.40;60.40;;;;;;5073740;28;20231;-68
2023/12/29 07:01:59;;;;;;;1.33;1.23;;;18.40;60.40;;;;;;5077336;28;20205;-68
2023/12/29 07:04:25;;;;;;;1.48;1.38;;;18.40;61.10;;;;;;5100006;28;20342;-69
2023/12/29 07:06:51;;;;;;;1.30;1.20;;;18.40;60.30;;;;;;5091777;28;20193;-68
2023/12/29 07:09:17;;;;;;;1.52;1.10;;;18.40;60.30;;;;;;5097548;28;20191;-68
2023/12/29 07:11:48;;;;;;;1.20;1.10;;;18.40;60.30;;;;;;5074459;28;20189;-68
2023/12/29 07:14:14;;;;;;;1.27;1.17;;;18.30;60.20;;;;;;5091908;28;20196;-69
2023/12/29 07:16:40;;;;;;;1.20;1.20;;;18.40;60.30;;;;;;5094598;28;20206;-69
2023/12/29 07:19:06;;;;;;;1.30;1.20;;;18.40;60.30;;;;;;5101365;28;20180;-68
2023/12/29 07:21:31;;;;;;;1.40;1.30;;;18.30;60.20;;;;;;5095143;28;20200;-68
2023/12/29 07:23:57;;;;;;;1.27;1.10;;;18.40;60.40;;;;;;5097359;28;20217;-68
2023/12/29 07:26:23;;;;;;;1.17;1.10;;;18.40;60.40;;;;;;5097313;28;20233;-68
2023/12/29 07:28:53;;;;;;;1.40;1.30;;;18.40;60.40;;;;;;5071594;28;20206;-68
2023/12/29 07:31:22;;;;;;;1.60;1.50;;;18.40;60.30;;;;;;5096621;28;20679;-68
2023/12/29 07:33:49;;;;;;;1.30;1.20;;;18.40;60.30;;;;;;5090120;28;20593;-69
2023/12/29 07:36:15;;;;;;;1.10;1.10;;;18.40;60.40;;;;;;5073091;28;20196;-69
2023/12/29 07:38:42;;;;;;;1.20;1.20;;;18.40;60.30;;;;;;5090649;28;20197;-69
2023/12/29 07:41:08;;;;;;;1.10;1.10;;;18.40;60.20;;;;;;5090516;28;20286;-69
2023/12/29 07:43:38;;;;;;;1.60;1.50;;;18.40;60.30;;;;;;5097674;28;20266;-69
2023/12/29 07:46:04;;;;;;;1.73;1.13;;;18.30;60.30;;;;;;5100996;28;20199;-69
2023/12/29 07:48:29;;;;;;;1.40;1.30;;;18.40;60.30;;;;;;5097827;28;20667;-68
2023/12/29 07:51:05;;;;;;;1.40;1.30;;;18.40;60.30;;;;;;5087027;28;20186;-68
2023/12/29 07:53:30;;;;;;;1.40;1.30;;;18.30;60.20;;;;;;5093842;28;20213;-68
2023/12/29 07:55:56;;;;;;;1.27;1.17;;;18.40;60.40;;;;;;5105969;28;20196;-68
2023/12/29 07:58:22;;;;;;;1.52;1.30;;;18.30;60.20;;;;;;5101312;28;20179;-68
2023/12/29 08:00:47;;;;;;;1.30;1.20;;;18.40;60.30;;;;;;5098497;28;20671;-68
2023/12/29 08:03:13;;;;;;;1.50;1.40;;;18.40;60.30;;;;;;5094792;28;20204;-68
2023/12/29 08:05:39;;;;;;;1.40;1.30;;;18.40;60.30;;;;;;5115804;27;20202;-68
2023/12/29 08:08:05;;;;;;;1.55;1.45;;;18.40;60.30;;;;;;5076148;28;20189;-68
2023/12/29 08:10:31;;;;;;;1.63;1.52;;;18.40;60.30;;;;;;5096796;28;20193;-68
2023/12/29 08:12:57;;;;;;;1.38;1.27;;;18.40;60.40;;;;;;5106728;28;20212;-68
2023/12/29 08:15:23;;;;;;;1.27;1.20;;;18.30;60.20;;;;;;5093445;28;20189;-68
2023/12/29 08:17:49;;;;;;;1.23;1.23;;;18.30;60.30;;;;;;5080122;28;20196;-68
2023/12/29 08:20:14;;;;;;;1.40;1.30;;;18.40;60.40;;;;;;5103197;28;20179;-68
2023/12/29 08:22:40;;;;;;;1.30;1.20;;;18.40;60.30;;;;;;5090220;28;20296;-68
2023/12/29 08:25:06;;;;;;;1.50;1.40;;;18.40;60.30;;;;;;5110469;28;20185;-68
2023/12/29 08:27:32;;;;;;;1.60;1.50;;;18.40;60.30;;;;;;5096470;28;20273;-68
2023/12/29 08:29:58;;;;;;;1.45;1.35;;;18.40;60.30;;;;;;5091291;28;20193;-68
2023/12/29 08:32:23;;;;;;;1.50;1.40;;;18.40;60.40;;;;;;5110198;28;20204;-69
2023/12/29 08:34:49;;;;;;;1.80;1.70;;;18.40;60.30;;;;;;5110034;27;20573;-68
2023/12/29 08:37:19;;;;;;;1.50;1.40;;;18.40;60.40;;;;;;5087986;28;20681;-68
2023/12/29 08:39:47;;;;;;;1.52;1.42;;;18.30;60.30;;;;;;5102833;28;20196;-68
2023/12/29 08:42:13;;;;;;;1.58;1.40;;;18.30;60.30;;;;;;5104572;28;20200;-68
2023/12/29 08:44:39;;;;;;;1.50;1.40;;;18.40;60.40;;;;;;5096229;28;20265;-68
2023/12/29 08:47:08;;;;;;;1.38;1.27;;;18.40;60.40;;;;;;5098619;28;20181;-69
2023/12/29 08:49:38;;;;;;;1.70;1.60;;;18.30;60.30;;;;;;5076294;28;20192;-68
2023/12/29 08:52:04;;;;;;;1.30;1.20;;;18.40;60.40;;;;;;5106291;28;20585;-68
2023/12/29 08:54:30;;;;;;;1.33;1.23;;;18.40;60.50;;;;;;5076261;28;20201;-68
2023/12/29 08:56:56;;;;;;;1.50;1.40;;;18.40;60.40;;;;;;5112544;27;20188;-68
2023/12/29 08:59:21;;;;;;;1.42;1.33;;;18.40;60.40;;;;;;5078529;28;20238;-68
2023/12/29 09:01:47;;;;;;;1.33;1.30;;;18.40;60.40;;;;;;5081434;28;20189;-68
2023/12/29 09:04:13;;;;;;;1.45;1.35;;;18.40;60.40;;;;;;5095565;28;20216;-69
2023/12/29 09:06:39;;;;;;;1.70;1.60;;;18.40;60.40;;;;;;5083852;28;20230;-68
2023/12/29 09:09:04;;;;;;;1.52;1.42;;;18.40;61.20;;;;;;5073717;28;20187;-69
2023/12/29 09:11:30;;;;;;;1.70;1.60;;;18.40;60.30;;;;;;5097656;28;20180;-68
2023/12/29 09:13:56;;;;;;;1.40;1.30;;;18.40;60.30;;;;;;5082566;28;20273;-68
2023/12/29 09:16:22;;;;;;;1.60;1.50;;;18.40;60.30;;;;;;5094776;28;20188;-68
2023/12/29 09:18:47;;;;;;;1.70;1.60;;;18.40;60.20;;;;;;5106520;28;20189;-68
2023/12/29 09:21:13;;;;;;;1.50;1.40;;;18.40;60.20;;;;;;5090199;28;20189;-68
2023/12/29 09:23:40;;;;;;;1.40;1.30;;;18.50;60.30;;;;;;5078066;28;20304;-68
2023/12/29 09:26:06;;;;;;;1.55;1.45;;;18.40;60.20;;;;;;5107431;27;20181;-68
2023/12/29 09:28:33;;;;;;;1.60;1.50;;;18.50;60.40;;;;;;5095501;28;20662;-68
2023/12/29 09:31:00;;;;;;;1.45;1.30;;;18.50;60.30;;;;;;5091623;28;20222;-68
2023/12/29 09:33:27;;;;;;;1.45;1.35;;;18.50;60.30;;;;;;5092017;28;20204;-68
2023/12/29 09:35:53;;;;;;;1.48;1.38;;;18.50;60.30;;;;;;5093495;28;20660;-68
2023/12/29 09:38:19;;;;;;;1.38;1.30;;;18.50;60.40;;;;;;5081175;28;20189;-68
2023/12/29 09:40:46;;;;;;;1.45;1.35;;;18.50;60.30;;;;;;5094271;28;20185;-69
2023/12/29 09:43:13;;;;;;;1.40;1.30;;;18.50;60.30;;;;;;5089461;28;20218;-68
2023/12/29 09:45:42;;;;;;;1.30;1.20;;;18.50;60.30;;;;;;5085906;28;20258;-68
2023/12/29 09:48:11;;;;;;;1.45;1.35;;;18.50;60.40;;;;;;5092422;28;20264;-68
2023/12/29 09:50:38;;;;;;;1.20;1.20;;;18.50;60.30;;;;;;5073565;28;20181;-68
2023/12/29 09:53:06;;;;;;;1.30;1.20;;;18.50;60.40;;;;;;5093864;28;20205;-67
2023/12/29 09:55:34;;;;;;;1.50;1.40;;;18.50;60.40;;;;;;5091511;28;20200;-68
2023/12/29 09:58:01;;;;;;;1.25;1.15;;;18.50;60.40;;;;;;5076894;28;20276;-67
2023/12/29 10:00:27;;;;;;;1.52;1.00;;;18.50;60.40;;;;;;5108569;28;20191;-67
2023/12/29 10:02:54;;;;;;;1.30;1.20;;;18.50;60.40;;;;;;5110329;27;20212;-68
2023/12/29 10:05:20;;;;;;;1.35;1.33;;;18.50;60.40;;;;;;5091899;28;20184;-67
2023/12/29 10:07:47;;;;;;;1.40;1.30;;;18.50;60.40;;;;;;5089033;28;20196;-68
2023/12/29 10:10:16;;;;;;;1.48;1.38;;;18.50;60.40;;;;;;5102049;28;20186;-69
2023/12/29 10:12:47;;;;;;;1.60;1.50;;;18.50;60.40;;;;;;5099468;28;20216;-68
2023/12/29 10:15:21;;;;;;;1.42;1.33;;;18.50;60.50;;;;;;5091241;28;20181;-68
2023/12/29 10:18:18;;;;;;;1.42;1.33;;;18.50;60.50;;;;;;5088118;28;20209;-68
2023/12/29 10:20:53;;;;;;;1.00;1.00;;;18.50;60.40;;;;;;5085015;28;20177;-68
2023/12/29 10:23:28;;;;;;;1.50;1.40;;;18.50;60.60;;;;;;5090811;28;20216;-68
2023/12/29 10:25:54;;;;;;;1.30;1.20;;;18.60;60.70;;;;;;5074642;28;20180;-68
2023/12/29 10:28:21;;;;;;;1.23;1.13;;;18.50;60.50;;;;;;5090851;28;20180;-68
2023/12/29 10:30:47;;;;;;;1.17;1.08;;;18.50;60.50;;;;;;5074259;28;20196;-67
2023/12/29 10:33:24;;;;;;;1.27;1.17;;;18.50;60.50;;;;;;5077310;28;20216;-68
2023/12/29 10:36:07;;;;;;;1.40;1.30;;;18.60;60.70;;;;;;5093708;28;20222;-68
2023/12/29 10:38:33;;;;;;;1.38;1.30;;;18.50;60.60;;;;;;5091456;28;20253;-68
2023/12/29 10:41:19;;;;;;;1.33;1.23;;;18.50;60.70;;;;;;5095883;28;20181;-68
2023/12/29 10:43:52;;;;;;;1.48;1.38;;;18.50;60.60;;;;;;5086085;28;20208;-69
2023/12/29 10:46:18;;;;;;;1.30;1.20;;;18.50;60.70;;;;;;5092418;28;20185;-67
2023/12/29 10:48:44;;;;;;;1.15;1.10;;;18.50;60.60;;;;;;5087062;28;20250;-68
2023/12/29 10:51:10;;;;;;;1.20;1.20;;;18.50;60.60;;;;;;5073350;28;20602;-68
2023/12/29 10:53:37;;;;;;;1.50;1.40;;;18.50;60.70;;;;;;5090321;28;20208;-69
2023/12/29 10:56:03;;;;;;;2.78;1.17;;;18.50;60.70;;;;;;5071514;28;20185;-68
2023/12/29 10:58:32;;;;;;;0.98;0.98;;;18.50;60.70;;;;;;5089091;28;20188;-68
2023/12/29 11:00:59;;;;;;;1.17;1.10;;;18.50;60.70;;;;;;5099657;28;20181;-68
2023/12/29 11:03:25;;;;;;;1.27;1.23;;;18.50;60.70;;;;;;5107232;28;20682;-68
2023/12/29 11:06:02;;;;;;;1.10;1.10;;;18.60;60.90;;;;;;5089327;28;20178;-67
2023/12/29 11:08:28;;;;;;;1.60;1.50;;;18.50;60.70;;;;;;5091615;28;20186;-67
2023/12/29 11:10:55;;;;;;;1.23;1.13;;;18.60;60.90;;;;;;5108604;28;20259;-67
2023/12/29 11:13:22;;;;;;;1.38;1.27;;;18.50;60.70;;;;;;5080581;28;20232;-68
2023/12/29 11:15:48;;;;;;;1.42;1.33;;;18.50;60.70;;;;;;5109017;28;20250;-69
2023/12/29 11:18:18;;;;;;;1.50;1.40;;;18.50;60.70;;;;;;5088327;28;20180;-66
2023/12/29 11:20:46;;;;;;;1.35;1.25;;;18.50;60.70;;;;;;5077471;28;20194;-68
2023/12/29 11:23:15;;;;;;;1.65;1.20;;;18.60;61.00;;;;;;5097392;28;20246;-67
2023/12/29 11:25:45;;;;;;;1.30;1.20;;;18.50;60.80;;;;;;5091107;28;20196;-67
2023/12/29 11:28:14;;;;;;;1.65;1.30;;;18.50;60.80;;;;;;5075968;28;20201;-68
2023/12/29 11:30:40;;;;;;;1.35;1.25;;;18.50;60.80;;;;;;5074153;28;20192;-68
2023/12/29 11:33:15;;;;;;;1.20;1.20;;;18.50;60.80;;;;;;5075546;28;20203;-67
2023/12/29 11:36:14;;;;;;;1.30;1.08;;;18.60;61.00;;;;;;5087833;28;20199;-67
2023/12/29 11:39:17;;;;;;;1.58;1.48;;;18.50;60.80;;;;;;5071304;28;20224;-66
2023/12/29 11:41:49;;;;;;;1.30;1.20;;;18.60;61.00;;;;;;5074053;28;20216;-68
2023/12/29 11:44:28;;;;;;;1.55;1.45;;;18.60;61.10;;;;;;5092624;28;20296;-68
2023/12/29 11:46:54;;;;;;;1.80;1.33;;;18.50;60.90;;;;;;5088451;28;20181;-67
2023/12/29 11:49:19;;;;;;;1.25;1.15;;;18.50;60.90;;;;;;5078516;28;20185;-68
2023/12/29 11:51:50;;;;;;;1.30;1.20;;;18.60;61.10;;;;;;5076816;28;20212;-68
2023/12/29 11:54:27;;;;;;;1.30;1.20;;;18.50;60.90;;;;;;5084962;28;20194;-68
2023/12/29 11:56:54;;;;;;;2.05;1.40;;;18.50;60.90;;;;;;5118418;27;20275;-68
2023/12/29 11:59:21;;;;;;;1.10;1.10;;;18.50;60.90;;;;;;5075810;28;20190;-67
2023/12/29 12:01:51;;;;;;;1.38;1.27;;;18.50;61.00;;;;;;5091380;28;20189;-67
2023/12/29 12:04:37;;;;;;;1.30;1.20;;;18.50;61.00;;;;;;5102373;28;20212;-67
2023/12/29 12:07:22;;;;;;;1.30;1.20;;;18.50;61.00;;;;;;5088910;28;20279;-67
2023/12/29 12:09:52;;;;;;;1.30;1.20;;;18.50;61.00;;;;;;5088313;28;20180;-67
2023/12/29 12:12:42;;;;;;;1.42;1.33;;;18.50;61.00;;;;;;5091324;28;20292;-67
2023/12/29 12:15:32;;;;;;;1.83;1.10;;;18.50;61.00;;;;;;5094959;28;20220;-67
2023/12/29 12:18:09;;;;;;;1.42;1.33;;;18.50;61.00;;;;;;5076610;28;20189;-67
2023/12/29 12:20:35;;;;;;;1.27;1.20;;;18.50;61.00;;;;;;5110479;27;20188;-68
2023/12/29 12:23:12;;;;;;;1.30;1.20;;;18.60;61.10;;;;;;5092728;28;20219;-67
2023/12/29 12:25:39;;;;;;;1.95;1.50;;;18.60;61.10;;;;;;5093575;28;20656;-67
2023/12/29 12:28:07;;;;;;;1.50;1.40;;;18.50;60.90;;;;;;5080293;28;20184;-67
2023/12/29 12:30:36;;;;;;;1.30;1.20;;;18.60;61.10;;;;;;5093206;28;20217;-66
2023/12/29 12:33:03;;;;;;;0.93;0.93;;;18.60;61.00;;;;;;5101622;28;20219;-68
2023/12/29 12:35:30;;;;;;;1.10;1.00;;;18.60;61.10;;;;;;5093043;28;20188;-67
2023/12/29 12:38:22;;;;;;;2.15;1.30;;;18.60;61.10;;;;;;5081965;28;20199;-68
2023/12/29 12:40:48;;;;;;;1.48;1.38;;;18.60;61.10;;;;;;5083141;28;20190;-67
2023/12/29 12:43:16;;;;;;;1.48;1.25;;;18.60;61.10;;;;;;5098111;28;20226;-67
2023/12/29 12:45:56;;;;;;;1.48;1.38;;;18.60;61.10;;;;;;5088016;28;20605;-67
2023/12/29 12:48:46;;;;;;;2.67;1.40;;;18.60;61.20;;;;;;5077609;28;20190;-68
2023/12/29 12:51:13;;;;;;;1.30;1.20;;;18.60;61.10;;;;;;5086194;28;20232;-68
2023/12/29 12:53:41;;;;;;;2.00;1.42;;;18.60;61.10;;;;;;5073533;28;20208;-67